Time;durP1;ratioP1;P1;durP2;ratioP2;P2;SDS_P1;SDS_P2;PMS_P1;PMS_P2;Temp;Humidity;BMP_temperature;BMP_pressure;BME280_temperature;BME280_humidity;BME280_pressure;Samples;Min_cycle;Max_cycle;Signal;HPM_P1;HPM_P2
2022/01/15 00:00:17;;;;;;;1.43;0.60;;;6.20;80.60;;;;;;5086271;28;20207;-59
2022/01/15 00:02:44;;;;;;;4.03;1.00;;;6.20;80.80;;;;;;5087112;28;20282;-60
2022/01/15 00:05:13;;;;;;;1.50;1.00;;;6.20;80.80;;;;;;5083162;28;20215;-59
2022/01/15 00:07:42;;;;;;;1.50;0.73;;;6.20;81.00;;;;;;5082660;28;20229;-60
2022/01/15 00:10:09;;;;;;;3.90;1.00;;;6.20;81.80;;;;;;5084364;28;20252;-60
2022/01/15 00:12:40;;;;;;;3.80;1.20;;;6.20;81.10;;;;;;5070206;28;20306;-60
2022/01/15 00:15:11;;;;;;;2.63;1.17;;;6.10;81.10;;;;;;5075898;28;20328;-60
2022/01/15 00:17:47;;;;;;;1.93;0.80;;;6.10;81.30;;;;;;5090228;28;20201;-60
2022/01/15 00:20:19;;;;;;;2.00;0.90;;;6.10;81.40;;;;;;5078038;28;20201;-59
2022/01/15 00:22:47;;;;;;;2.27;0.70;;;6.10;81.60;;;;;;5077719;28;20207;-59
2022/01/15 00:25:14;;;;;;;1.30;0.70;;;6.00;81.70;;;;;;5076553;28;20199;-59
2022/01/15 00:27:42;;;;;;;1.97;0.90;;;6.00;81.80;;;;;;5066719;28;20217;-58
2022/01/15 00:30:10;;;;;;;1.83;0.90;;;6.00;81.90;;;;;;5078887;28;20662;-60
2022/01/15 00:32:38;;;;;;;0.87;0.60;;;6.00;81.90;;;;;;5089588;28;20206;-60
2022/01/15 00:35:07;;;;;;;2.20;1.13;;;6.00;82.00;;;;;;5066565;28;20214;-59
2022/01/15 00:37:35;;;;;;;2.67;1.03;;;6.00;82.10;;;;;;5065298;28;20673;-59
2022/01/15 00:40:06;;;;;;;1.43;0.90;;;6.00;82.40;;;;;;5084482;28;20570;-59
2022/01/15 00:42:34;;;;;;;0.70;0.70;;;5.90;82.40;;;;;;5083745;28;20252;-60
2022/01/15 00:45:02;;;;;;;4.23;1.47;;;5.90;82.60;;;;;;5085456;28;20206;-60
2022/01/15 00:47:31;;;;;;;2.70;1.40;;;5.90;82.70;;;;;;5086999;28;20198;-60
2022/01/15 00:49:59;;;;;;;4.27;1.43;;;5.90;82.70;;;;;;5084042;28;20210;-59
2022/01/15 00:52:26;;;;;;;2.23;1.00;;;5.90;82.80;;;;;;5083352;28;20191;-60
2022/01/15 00:54:55;;;;;;;2.53;1.07;;;5.90;83.00;;;;;;5093910;28;20202;-60
2022/01/15 00:57:22;;;;;;;0.83;0.50;;;5.90;83.10;;;;;;5089986;28;20229;-59
2022/01/15 00:59:49;;;;;;;1.63;0.70;;;5.90;83.20;;;;;;5082125;28;20555;-60
2022/01/15 01:02:17;;;;;;;1.30;0.53;;;5.90;83.20;;;;;;5089228;28;20195;-60
2022/01/15 01:04:44;;;;;;;5.40;1.20;;;6.00;83.40;;;;;;5085636;28;20255;-60
2022/01/15 01:07:11;;;;;;;2.30;1.00;;;5.90;83.40;;;;;;5086039;28;20203;-59
2022/01/15 01:09:56;;;;;;;3.83;1.20;;;5.90;83.40;;;;;;5095616;28;20205;-59
2022/01/15 01:12:32;;;;;;;2.07;1.07;;;5.90;83.70;;;;;;5085420;28;20213;-59
2022/01/15 01:20:37;;;;;;;1.17;0.90;;;5.80;83.90;;;;;;5093351;28;20189;-59
2022/01/15 01:23:04;;;;;;;2.93;0.70;;;5.80;84.00;;;;;;5092380;28;20627;-60
2022/01/15 01:25:37;;;;;;;2.30;0.83;;;5.80;84.10;;;;;;5093831;28;20294;-60
2022/01/15 01:28:10;;;;;;;1.57;0.70;;;5.80;84.20;;;;;;5060953;28;20624;-60
2022/01/15 01:30:43;;;;;;;2.43;0.90;;;5.80;84.30;;;;;;5066624;28;20569;-60
2022/01/15 01:33:30;;;;;;;1.07;0.70;;;5.80;84.40;;;;;;5080609;28;20593;-60
2022/01/15 01:36:09;;;;;;;0.57;0.53;;;5.80;84.50;;;;;;5068436;28;20991;-60
2022/01/15 01:38:42;;;;;;;2.17;1.10;;;5.80;84.90;;;;;;5082083;28;20656;-60
2022/01/15 01:41:15;;;;;;;1.57;0.93;;;5.80;84.80;;;;;;5081598;28;20623;-60
2022/01/15 01:43:51;;;;;;;2.93;0.90;;;5.80;84.90;;;;;;5085301;28;20530;-60
2022/01/15 01:46:34;;;;;;;1.27;0.77;;;5.80;85.00;;;;;;5085559;28;20301;-60
2022/01/15 01:49:03;;;;;;;2.13;0.80;;;5.80;85.10;;;;;;5080830;28;20230;-60
2022/01/15 01:51:33;;;;;;;3.13;1.07;;;5.70;85.20;;;;;;5068272;28;20240;-60
2022/01/15 01:54:04;;;;;;;1.50;0.70;;;5.80;85.40;;;;;;5090211;28;20532;-60
2022/01/15 01:56:31;;;;;;;1.23;0.70;;;5.80;85.50;;;;;;5084567;28;20296;-60
2022/01/15 01:59:00;;;;;;;1.00;0.70;;;5.70;85.60;;;;;;5088657;28;20255;-60
2022/01/15 02:01:28;;;;;;;1.27;0.43;;;5.70;85.80;;;;;;5091026;28;20239;-60
2022/01/15 02:03:59;;;;;;;1.17;0.60;;;5.70;86.00;;;;;;5085149;28;20217;-59
2022/01/15 02:06:26;;;;;;;0.50;0.50;;;5.70;86.10;;;;;;5086225;28;20222;-59
2022/01/15 02:08:55;;;;;;;1.00;0.50;;;5.60;86.20;;;;;;5073418;28;20276;-60
2022/01/15 02:11:24;;;;;;;3.00;0.70;;;5.60;86.50;;;;;;5085987;28;20194;-59
2022/01/15 02:13:52;;;;;;;2.03;0.80;;;5.60;86.70;;;;;;5080041;28;20264;-60
2022/01/15 02:16:20;;;;;;;2.23;0.57;;;5.60;86.80;;;;;;5078537;28;20204;-60
2022/01/15 02:18:47;;;;;;;0.70;0.60;;;5.60;86.90;;;;;;5079834;28;20276;-60
2022/01/15 02:24:00;;;;;;;1.17;0.60;;;5.60;87.10;;;;;;5084118;28;20378;-60
2022/01/15 02:26:28;;;;;;;1.53;0.60;;;5.60;87.20;;;;;;5069279;28;20588;-60
2022/01/15 02:28:58;;;;;;;1.67;0.70;;;5.60;87.40;;;;;;5084274;28;20701;-59
2022/01/15 02:31:28;;;;;;;3.20;0.87;;;5.60;87.50;;;;;;5075897;28;20735;-60
2022/01/15 02:33:56;;;;;;;1.37;0.57;;;5.50;87.60;;;;;;5084060;28;20281;-59
2022/01/15 02:36:26;;;;;;;1.63;0.60;;;5.50;87.80;;;;;;5079729;28;20270;-60
2022/01/15 02:38:54;;;;;;;1.07;0.70;;;5.50;88.00;;;;;;5084188;28;20206;-60
2022/01/15 02:41:29;;;;;;;2.70;0.83;;;5.50;88.10;;;;;;5091433;28;20216;-60
2022/01/15 02:43:59;;;;;;;1.33;0.70;;;5.50;88.50;;;;;;5081842;28;20199;-59
2022/01/15 02:48:00;;;;;;;1.60;0.80;;;5.50;88.60;;;;;;5084623;28;20233;-60
2022/01/15 02:49:22;;;;;;;2.00;0.80;;;5.50;88.70;;;;;;5091507;28;20277;-60
2022/01/15 02:51:51;;;;;;;1.60;0.60;;;5.50;88.90;;;;;;5062487;28;20223;-59
2022/01/15 02:54:18;;;;;;;0.60;0.60;;;5.50;89.10;;;;;;5082418;28;20197;-60
2022/01/15 02:56:45;;;;;;;1.40;0.60;;;5.40;89.10;;;;;;5073395;28;20328;-60
2022/01/15 02:59:18;;;;;;;1.67;0.70;;;5.40;89.30;;;;;;5091038;28;20202;-59
2022/01/15 03:01:45;;;;;;;0.97;0.70;;;5.50;89.50;;;;;;5072726;28;20204;-59
2022/01/15 03:04:12;;;;;;;0.80;0.50;;;5.40;89.60;;;;;;5084137;28;20223;-60
2022/01/15 03:06:39;;;;;;;2.43;0.80;;;5.40;89.80;;;;;;5091255;28;20198;-60
2022/01/15 03:09:08;;;;;;;1.37;0.73;;;5.40;90.00;;;;;;5080908;28;20233;-61
2022/01/15 03:11:36;;;;;;;1.60;0.60;;;5.40;90.00;;;;;;5089676;28;20706;-60
2022/01/15 03:14:03;;;;;;;5.40;0.80;;;5.40;90.10;;;;;;5062581;28;20640;-60
2022/01/15 03:16:30;;;;;;;3.07;0.60;;;5.40;90.10;;;;;;5076596;28;20195;-60
2022/01/15 03:18:57;;;;;;;0.50;0.50;;;5.40;90.20;;;;;;5081542;28;20660;-60
2022/01/15 03:21:25;;;;;;;4.70;0.50;;;5.40;90.30;;;;;;5078564;28;20277;-62
2022/01/15 03:23:52;;;;;;;1.97;0.80;;;5.40;90.40;;;;;;5091432;28;20209;-60
2022/01/15 03:26:20;;;;;;;1.80;0.70;;;5.40;90.40;;;;;;5079514;28;20205;-59
2022/01/15 03:28:47;;;;;;;3.37;0.73;;;5.40;90.50;;;;;;5088822;28;20197;-60
2022/01/15 03:31:14;;;;;;;1.20;0.60;;;5.40;90.60;;;;;;5088935;28;20271;-61
2022/01/15 03:33:41;;;;;;;0.83;0.50;;;5.40;90.60;;;;;;5089129;28;20197;-60
2022/01/15 03:36:09;;;;;;;3.10;0.60;;;5.30;90.60;;;;;;5070096;28;20237;-60
2022/01/15 03:38:36;;;;;;;0.90;0.47;;;5.30;90.70;;;;;;5083706;28;20199;-60
2022/01/15 03:41:04;;;;;;;0.50;0.50;;;5.30;90.70;;;;;;5069119;28;20200;-60
2022/01/15 03:43:32;;;;;;;0.77;0.60;;;5.30;90.80;;;;;;5087813;28;20292;-60
2022/01/15 03:45:59;;;;;;;0.73;0.40;;;5.30;90.90;;;;;;5077153;28;20260;-59
2022/01/15 03:48:27;;;;;;;2.00;0.50;;;5.30;90.90;;;;;;5082037;28;20190;-59
2022/01/15 03:50:55;;;;;;;0.30;0.30;;;5.30;90.90;;;;;;5072767;28;20245;-59
2022/01/15 03:53:23;;;;;;;0.37;0.37;;;5.40;91.00;;;;;;5078474;28;20194;-60
2022/01/15 03:55:50;;;;;;;0.50;0.40;;;5.30;90.90;;;;;;5078191;28;20307;-60
2022/01/15 03:58:17;;;;;;;0.30;0.30;;;5.30;91.00;;;;;;5090478;28;20734;-59
2022/01/15 04:00:46;;;;;;;0.50;0.30;;;5.30;91.10;;;;;;5083938;28;20192;-59
2022/01/15 04:03:13;;;;;;;0.30;0.30;;;5.30;91.10;;;;;;5080542;28;20204;-60
2022/01/15 04:05:40;;;;;;;1.63;0.43;;;5.30;91.20;;;;;;5084022;28;20194;-60
2022/01/15 04:08:08;;;;;;;0.87;0.40;;;5.30;91.20;;;;;;5076269;28;20723;-59
2022/01/15 04:10:35;;;;;;;0.57;0.40;;;5.30;91.20;;;;;;5073283;28;20244;-60
2022/01/15 04:13:03;;;;;;;0.60;0.50;;;5.30;91.30;;;;;;5089108;28;20194;-60
2022/01/15 04:15:30;;;;;;;0.53;0.50;;;5.30;91.60;;;;;;5078465;28;20202;-60
2022/01/15 04:17:58;;;;;;;1.53;0.43;;;5.30;91.30;;;;;;5076654;28;20208;-60
2022/01/15 04:20:26;;;;;;;0.50;0.50;;;5.30;91.30;;;;;;5071880;28;20532;-59
2022/01/15 04:22:54;;;;;;;0.63;0.60;;;5.30;91.30;;;;;;5083822;28;20672;-59
2022/01/15 04:25:21;;;;;;;2.53;0.70;;;5.30;91.40;;;;;;5079264;28;20194;-60
2022/01/15 04:27:49;;;;;;;1.80;0.50;;;5.30;91.40;;;;;;5080535;28;20615;-60
2022/01/15 04:30:17;;;;;;;2.93;0.50;;;5.30;91.40;;;;;;5078221;28;20221;-58
2022/01/15 04:32:45;;;;;;;1.07;0.60;;;5.30;91.50;;;;;;5079151;28;20602;-59
2022/01/15 04:35:13;;;;;;;0.87;0.60;;;5.30;91.50;;;;;;5089102;28;20309;-60
2022/01/15 04:37:44;;;;;;;0.57;0.57;;;5.30;91.60;;;;;;5086446;28;20196;-60
2022/01/15 04:40:13;;;;;;;0.30;0.30;;;5.30;91.60;;;;;;5094113;28;20197;-60
2022/01/15 04:42:42;;;;;;;2.40;0.70;;;5.20;91.60;;;;;;5082490;28;20198;-60
2022/01/15 04:45:09;;;;;;;1.60;0.50;;;5.30;91.70;;;;;;5078810;28;20274;-59
2022/01/15 04:47:37;;;;;;;0.33;0.33;;;5.20;91.70;;;;;;5088935;28;20200;-59
2022/01/15 04:50:07;;;;;;;0.90;0.40;;;5.20;91.70;;;;;;5083756;28;20205;-59
2022/01/15 04:52:36;;;;;;;0.47;0.47;;;5.20;91.80;;;;;;5080598;28;20665;-59
2022/01/15 04:55:04;;;;;;;0.43;0.33;;;5.20;91.80;;;;;;5084566;28;20197;-59
2022/01/15 04:57:31;;;;;;;0.73;0.33;;;5.20;91.90;;;;;;5085812;28;20716;-59
2022/01/15 04:59:58;;;;;;;0.47;0.47;;;5.20;91.90;;;;;;5084208;28;20186;-60
2022/01/15 05:02:26;;;;;;;0.50;0.50;;;5.20;91.90;;;;;;5092418;28;20197;-60
2022/01/15 05:04:53;;;;;;;1.63;0.70;;;5.20;92.00;;;;;;5088477;28;20243;-60
2022/01/15 05:07:21;;;;;;;0.80;0.50;;;5.20;92.00;;;;;;5092557;28;20246;-59
2022/01/15 05:09:50;;;;;;;1.90;0.70;;;5.20;92.10;;;;;;5085415;28;20270;-60
2022/01/15 05:12:27;;;;;;;2.17;0.80;;;5.20;92.10;;;;;;5080561;28;20189;-59
2022/01/15 05:14:54;;;;;;;4.50;0.87;;;5.20;92.10;;;;;;5093356;28;20211;-59
2022/01/15 05:17:21;;;;;;;3.63;0.70;;;5.20;92.20;;;;;;5092438;28;20196;-59
2022/01/15 05:19:48;;;;;;;1.60;0.90;;;5.10;92.20;;;;;;5081794;28;20200;-60
2022/01/15 05:22:15;;;;;;;0.50;0.50;;;5.10;92.20;;;;;;5092331;28;20207;-60
2022/01/15 05:24:43;;;;;;;1.60;0.60;;;5.10;92.30;;;;;;5064886;28;20212;-59
2022/01/15 05:27:11;;;;;;;4.40;0.80;;;5.10;92.30;;;;;;5093013;28;20196;-60
2022/01/15 05:29:38;;;;;;;3.17;1.07;;;5.10;92.40;;;;;;5090748;28;20667;-60
2022/01/15 05:32:06;;;;;;;2.80;0.90;;;5.10;92.50;;;;;;5091996;28;20667;-59
2022/01/15 05:34:33;;;;;;;3.10;0.87;;;5.00;92.50;;;;;;5092077;28;20261;-59
2022/01/15 05:37:01;;;;;;;2.23;0.97;;;5.00;92.70;;;;;;5074224;28;20303;-60
2022/01/15 05:39:28;;;;;;;1.83;1.00;;;5.00;92.80;;;;;;5083662;28;20601;-58
2022/01/15 05:41:56;;;;;;;3.20;0.67;;;4.90;92.80;;;;;;5078393;28;20262;-60
2022/01/15 05:44:24;;;;;;;2.90;0.87;;;4.90;92.90;;;;;;5080438;28;20190;-60
2022/01/15 05:46:51;;;;;;;1.37;0.67;;;4.90;93.00;;;;;;5092374;28;20596;-60
2022/01/15 05:49:19;;;;;;;1.23;0.80;;;4.90;93.00;;;;;;5088930;28;20721;-60
2022/01/15 05:51:46;;;;;;;1.50;0.87;;;4.90;93.10;;;;;;5079376;28;20196;-58
2022/01/15 05:54:13;;;;;;;0.70;0.70;;;4.90;93.10;;;;;;5090184;28;20262;-60
2022/01/15 05:56:41;;;;;;;1.10;0.70;;;4.90;93.20;;;;;;5092856;28;20233;-59
2022/01/15 05:59:09;;;;;;;0.40;0.40;;;4.90;93.20;;;;;;5086878;28;20197;-60
2022/01/15 06:01:38;;;;;;;0.33;0.33;;;4.80;93.30;;;;;;5082142;28;20677;-61
2022/01/15 06:04:05;;;;;;;0.60;0.60;;;4.80;93.30;;;;;;5062219;28;20658;-61
2022/01/15 06:06:33;;;;;;;0.70;0.60;;;4.80;93.40;;;;;;5087288;28;20641;-59
2022/01/15 06:09:00;;;;;;;1.30;0.50;;;4.80;93.50;;;;;;5073388;28;20197;-60
2022/01/15 06:11:27;;;;;;;0.70;0.70;;;4.80;93.50;;;;;;5078827;28;20540;-61
2022/01/15 06:13:55;;;;;;;1.23;0.77;;;4.80;93.60;;;;;;5073679;28;20251;-60
2022/01/15 06:16:23;;;;;;;2.60;0.70;;;4.80;93.60;;;;;;5068230;28;20782;-59
2022/01/15 06:18:51;;;;;;;0.60;0.60;;;4.80;93.60;;;;;;5080475;28;20201;-60
2022/01/15 06:21:19;;;;;;;1.30;0.90;;;4.80;93.70;;;;;;5079368;28;20561;-60
2022/01/15 06:23:46;;;;;;;0.43;0.43;;;4.80;94.00;;;;;;5063280;28;20253;-59
2022/01/15 06:26:14;;;;;;;0.40;0.40;;;4.80;93.80;;;;;;5074421;28;20197;-59
2022/01/15 06:28:41;;;;;;;1.10;0.60;;;4.70;93.80;;;;;;5074719;28;20201;-59
2022/01/15 06:31:08;;;;;;;0.60;0.60;;;4.70;93.90;;;;;;5058204;28;20761;-60
2022/01/15 06:33:35;;;;;;;0.50;0.40;;;4.70;94.00;;;;;;5074801;28;20645;-58
2022/01/15 06:36:04;;;;;;;0.37;0.30;;;4.70;94.10;;;;;;5077072;28;20201;-60
2022/01/15 06:38:31;;;;;;;0.50;0.50;;;4.70;94.20;;;;;;5077611;28;20193;-59
2022/01/15 06:40:58;;;;;;;0.83;0.60;;;4.70;94.20;;;;;;5080251;28;20594;-59
2022/01/15 06:43:25;;;;;;;0.40;0.40;;;4.70;94.20;;;;;;5091056;28;20205;-60
2022/01/15 06:45:52;;;;;;;0.40;0.40;;;4.70;94.20;;;;;;5091611;28;20195;-59
2022/01/15 06:48:19;;;;;;;1.57;0.80;;;4.70;94.30;;;;;;5087958;28;20224;-59
2022/01/15 06:50:46;;;;;;;0.43;0.43;;;4.60;94.30;;;;;;5089670;28;20200;-59
2022/01/15 06:53:15;;;;;;;0.80;0.50;;;4.60;94.40;;;;;;5082601;28;20292;-61
2022/01/15 06:55:42;;;;;;;0.70;0.60;;;4.60;94.40;;;;;;5084320;28;20235;-60
2022/01/15 06:58:11;;;;;;;1.27;0.60;;;4.60;94.50;;;;;;5085880;28;20254;-60
2022/01/15 07:00:38;;;;;;;0.67;0.50;;;4.60;94.50;;;;;;5086467;28;20211;-60
2022/01/15 07:03:05;;;;;;;0.40;0.37;;;4.60;94.50;;;;;;5083985;28;20672;-59
2022/01/15 07:05:32;;;;;;;0.67;0.50;;;4.60;94.50;;;;;;5090274;28;20192;-61
2022/01/15 07:07:59;;;;;;;1.20;0.60;;;4.70;94.60;;;;;;5067859;28;20201;-60
2022/01/15 07:10:28;;;;;;;4.70;0.80;;;4.70;94.60;;;;;;5075425;28;20231;-60
2022/01/15 07:12:55;;;;;;;0.80;0.60;;;4.70;94.70;;;;;;5059786;28;20608;-59
2022/01/15 07:15:22;;;;;;;1.03;0.80;;;4.70;94.70;;;;;;5073681;28;20264;-60
2022/01/15 07:17:50;;;;;;;1.00;0.50;;;4.70;94.70;;;;;;5063863;28;20722;-59
2022/01/15 07:20:19;;;;;;;1.47;0.70;;;4.70;94.70;;;;;;5085644;28;20196;-60
2022/01/15 07:22:47;;;;;;;1.67;0.60;;;4.70;94.80;;;;;;5073711;28;20197;-59
2022/01/15 07:25:14;;;;;;;1.37;0.70;;;4.60;94.80;;;;;;5074515;28;20193;-59
2022/01/15 07:27:43;;;;;;;0.97;0.70;;;4.60;94.80;;;;;;5085620;28;20232;-59
2022/01/15 07:30:12;;;;;;;1.60;0.90;;;4.60;94.90;;;;;;5091403;28;20197;-60
2022/01/15 07:32:40;;;;;;;0.67;0.57;;;4.60;94.90;;;;;;5089848;28;20204;-60
2022/01/15 07:35:09;;;;;;;1.40;0.87;;;4.70;95.00;;;;;;5089253;28;20518;-60
2022/01/15 07:37:37;;;;;;;2.23;0.90;;;4.70;95.00;;;;;;5086797;28;20192;-60
2022/01/15 07:40:06;;;;;;;1.27;0.83;;;4.70;95.00;;;;;;5081813;28;20349;-61
2022/01/15 07:42:36;;;;;;;1.30;0.83;;;4.70;95.10;;;;;;5085153;28;20207;-59
2022/01/15 07:45:05;;;;;;;2.97;1.30;;;4.70;95.10;;;;;;5084867;28;20189;-60
2022/01/15 07:47:33;;;;;;;4.83;1.60;;;4.70;95.10;;;;;;5081531;28;20679;-60
2022/01/15 07:50:00;;;;;;;5.67;1.80;;;4.70;95.10;;;;;;5078024;28;20197;-60
2022/01/15 07:52:27;;;;;;;2.03;1.40;;;4.70;95.20;;;;;;5082807;28;20734;-60
2022/01/15 07:54:54;;;;;;;3.80;1.40;;;4.70;95.20;;;;;;5089617;28;20563;-58
2022/01/15 07:57:21;;;;;;;2.80;1.10;;;4.70;95.30;;;;;;5071748;28;20231;-59
2022/01/15 07:59:50;;;;;;;2.37;1.20;;;4.70;95.30;;;;;;5085208;28;20258;-59
2022/01/15 08:02:19;;;;;;;2.77;0.87;;;4.70;95.30;;;;;;5087079;28;20206;-59
2022/01/15 08:04:46;;;;;;;1.40;0.90;;;4.70;95.40;;;;;;5080897;28;20553;-59
2022/01/15 08:07:13;;;;;;;3.67;1.33;;;4.80;95.40;;;;;;5082893;28;20196;-59
2022/01/15 08:09:40;;;;;;;4.10;1.43;;;4.80;95.40;;;;;;5067536;28;20668;-59
2022/01/15 08:12:08;;;;;;;5.13;1.67;;;4.80;95.70;;;;;;5062721;28;20562;-60
2022/01/15 08:14:35;;;;;;;8.43;2.30;;;4.90;95.40;;;;;;5090480;28;20196;-60
2022/01/15 08:17:03;;;;;;;6.40;2.00;;;4.90;95.40;;;;;;5071101;28;20239;-61
2022/01/15 08:19:31;;;;;;;3.43;1.57;;;4.90;95.40;;;;;;5083746;28;20222;-60
2022/01/15 08:21:58;;;;;;;2.77;1.20;;;4.90;95.50;;;;;;5083673;28;20200;-60
2022/01/15 08:24:25;;;;;;;2.37;1.20;;;4.90;95.50;;;;;;5085812;28;20192;-59
2022/01/15 08:26:53;;;;;;;2.60;1.33;;;4.90;95.60;;;;;;5073311;28;20218;-60
2022/01/15 08:29:20;;;;;;;2.90;1.30;;;4.90;95.60;;;;;;5074828;28;20281;-60
2022/01/15 08:31:47;;;;;;;3.43;1.10;;;5.00;95.60;;;;;;5073868;28;20205;-60
2022/01/15 08:34:14;;;;;;;5.20;1.47;;;5.00;95.60;;;;;;5067239;28;20725;-60
2022/01/15 08:36:42;;;;;;;3.67;1.50;;;5.10;95.60;;;;;;5066384;28;20243;-60
2022/01/15 08:39:10;;;;;;;4.43;1.50;;;5.10;95.50;;;;;;5080688;28;20188;-60
2022/01/15 08:41:37;;;;;;;4.10;1.30;;;5.10;95.50;;;;;;5084504;28;20196;-61
2022/01/15 08:44:06;;;;;;;1.50;1.10;;;5.20;95.50;;;;;;5086482;28;20231;-61
2022/01/15 08:46:33;;;;;;;3.33;1.00;;;5.20;95.50;;;;;;5056911;28;20211;-60
2022/01/15 08:49:01;;;;;;;3.90;0.80;;;5.30;95.50;;;;;;5077781;28;20204;-60
2022/01/15 08:51:30;;;;;;;3.53;1.13;;;5.40;95.50;;;;;;5084504;28;20320;-60
2022/01/15 08:53:58;;;;;;;6.93;1.70;;;5.40;95.40;;;;;;5085891;28;20193;-60
2022/01/15 08:56:25;;;;;;;4.10;1.60;;;5.50;95.30;;;;;;5076278;28;20566;-60
2022/01/15 08:58:52;;;;;;;3.13;1.70;;;5.50;95.20;;;;;;5088012;28;20606;-59
2022/01/15 09:01:20;;;;;;;6.63;1.93;;;5.50;95.20;;;;;;5089277;28;20184;-60
2022/01/15 09:03:47;;;;;;;2.40;1.23;;;5.60;95.20;;;;;;5081362;28;20193;-60
2022/01/15 09:06:14;;;;;;;2.70;1.37;;;5.60;95.20;;;;;;5081980;28;20685;-60
2022/01/15 09:08:43;;;;;;;3.60;1.50;;;5.60;95.10;;;;;;5085070;28;20684;-60
2022/01/15 09:11:11;;;;;;;4.27;1.40;;;5.70;95.10;;;;;;5089509;28;20237;-61
2022/01/15 09:13:40;;;;;;;4.73;1.40;;;5.70;95.10;;;;;;5080770;28;20194;-62
2022/01/15 09:16:07;;;;;;;3.70;1.30;;;5.80;95.00;;;;;;5080791;28;20559;-61
2022/01/15 09:18:35;;;;;;;2.80;1.30;;;5.90;95.00;;;;;;5087639;28;20194;-59
2022/01/15 09:21:02;;;;;;;8.60;2.27;;;6.00;95.00;;;;;;5085277;28;20197;-60
2022/01/15 09:23:29;;;;;;;4.90;1.73;;;6.00;94.70;;;;;;5091222;28;20238;-60
2022/01/15 09:25:58;;;;;;;5.07;1.83;;;6.00;94.50;;;;;;5092933;28;20663;-60
2022/01/15 09:31:12;;;;;;;4.40;1.77;;;6.10;94.60;;;;;;5073146;28;20213;-60
2022/01/15 09:33:39;;;;;;;3.53;1.80;;;6.10;94.50;;;;;;5092925;28;20193;-60
2022/01/15 09:36:06;;;;;;;7.10;1.87;;;6.10;94.50;;;;;;5091622;28;20205;-60
2022/01/15 09:38:34;;;;;;;3.70;1.80;;;6.10;94.50;;;;;;5088615;28;20699;-60
2022/01/15 09:41:01;;;;;;;4.73;1.70;;;6.20;94.60;;;;;;5091570;28;20252;-61
2022/01/15 09:43:30;;;;;;;5.33;1.83;;;6.20;94.60;;;;;;5081412;28;20193;-61
2022/01/15 09:45:59;;;;;;;3.20;1.73;;;6.30;94.60;;;;;;5091150;28;20455;-60
2022/01/15 09:48:29;;;;;;;3.17;1.57;;;6.40;94.60;;;;;;5076262;28;20219;-59
2022/01/15 09:50:57;;;;;;;6.43;2.20;;;6.40;94.50;;;;;;5088085;28;20687;-61
2022/01/15 09:53:24;;;;;;;3.97;2.00;;;6.50;94.20;;;;;;5083690;28;20194;-61
2022/01/15 09:55:52;;;;;;;2.50;1.50;;;6.50;94.20;;;;;;5080872;28;20241;-61
2022/01/15 09:58:19;;;;;;;5.90;2.10;;;6.50;94.50;;;;;;5077691;28;20191;-59
2022/01/15 10:00:48;;;;;;;5.00;1.90;;;6.60;94.20;;;;;;5082065;28;20206;-60
2022/01/15 10:03:15;;;;;;;1.53;1.20;;;6.70;94.10;;;;;;5089438;28;20241;-60
2022/01/15 10:05:43;;;;;;;2.83;1.63;;;6.80;94.10;;;;;;5070751;28;20210;-59
2022/01/15 10:08:13;;;;;;;8.70;2.30;;;6.90;94.10;;;;;;5083391;28;20625;-59
2022/01/15 10:10:47;;;;;;;6.13;2.03;;;6.90;93.60;;;;;;5092665;28;20196;-60
2022/01/15 10:13:17;;;;;;;5.07;1.90;;;6.90;93.60;;;;;;5089844;28;20189;-60
2022/01/15 10:15:46;;;;;;;3.43;1.87;;;7.10;93.60;;;;;;5082049;28;20613;-60
2022/01/15 10:18:24;;;;;;;7.23;1.97;;;7.20;93.20;;;;;;5073431;28;20671;-59
2022/01/15 10:20:52;;;;;;;3.70;1.70;;;7.30;93.00;;;;;;5086308;28;20694;-61
2022/01/15 10:23:21;;;;;;;6.70;2.10;;;7.30;92.80;;;;;;5079286;28;20277;-61
2022/01/15 10:26:14;;;;;;;4.67;2.00;;;7.40;92.40;;;;;;5074312;28;20257;-61
2022/01/15 10:28:59;;;;;;;6.67;2.10;;;7.40;92.30;;;;;;5080870;28;20198;-59
2022/01/15 10:31:28;;;;;;;6.87;2.10;;;7.50;92.30;;;;;;5087381;28;20207;-60
2022/01/15 10:33:58;;;;;;;4.90;1.97;;;7.50;92.10;;;;;;5084232;28;20223;-60
2022/01/15 10:36:27;;;;;;;2.90;1.50;;;7.50;92.10;;;;;;5077394;28;20593;-60
2022/01/15 10:39:12;;;;;;;5.87;1.63;;;7.50;92.30;;;;;;5062067;28;20674;-60
2022/01/15 10:41:39;;;;;;;3.23;1.80;;;7.60;92.20;;;;;;5078225;28;20196;-59
2022/01/15 10:44:29;;;;;;;4.60;1.57;;;7.60;92.00;;;;;;5084146;28;20649;-60
2022/01/15 10:47:02;;;;;;;5.33;1.83;;;7.70;91.90;;;;;;5085141;28;20188;-59
2022/01/15 10:49:31;;;;;;;1.97;1.03;;;7.70;91.70;;;;;;5087702;28;20634;-60
2022/01/15 10:52:17;;;;;;;2.03;1.30;;;7.80;91.80;;;;;;5084062;28;20205;-60
2022/01/15 10:55:00;;;;;;;4.70;1.70;;;7.80;91.80;;;;;;5081691;28;20225;-60
2022/01/15 10:57:30;;;;;;;3.20;1.70;;;7.80;91.40;;;;;;5080241;28;20738;-61
2022/01/15 11:00:04;;;;;;;6.27;1.60;;;7.90;91.40;;;;;;5080523;28;20193;-60
2022/01/15 11:02:31;;;;;;;2.70;1.23;;;8.00;91.40;;;;;;5086741;28;20263;-61
2022/01/15 11:05:00;;;;;;;3.83;1.53;;;8.10;91.30;;;;;;5077098;28;20197;-60
2022/01/15 11:07:28;;;;;;;2.77;1.50;;;8.20;91.00;;;;;;5075766;28;20201;-61
2022/01/15 11:09:55;;;;;;;3.03;1.27;;;8.30;90.90;;;;;;5087138;28;20200;-59
2022/01/15 11:12:27;;;;;;;5.47;1.70;;;8.30;90.90;;;;;;5070680;28;20315;-61
2022/01/15 11:14:54;;;;;;;4.43;1.53;;;8.40;90.90;;;;;;5085786;28;20300;-60
2022/01/15 11:17:21;;;;;;;4.60;1.67;;;8.40;90.80;;;;;;5070900;28;20731;-60
2022/01/15 11:19:53;;;;;;;3.37;1.60;;;8.50;90.40;;;;;;5083544;28;20280;-60
2022/01/15 11:22:22;;;;;;;2.97;1.73;;;8.50;90.30;;;;;;5080047;28;20280;-61
2022/01/15 11:24:51;;;;;;;3.33;1.83;;;8.50;89.80;;;;;;5079049;28;20560;-60
2022/01/15 11:27:19;;;;;;;2.67;1.20;;;8.50;89.90;;;;;;5081606;28;20197;-59
2022/01/15 11:29:48;;;;;;;2.53;1.03;;;8.50;90.40;;;;;;5066336;28;20212;-60
2022/01/15 11:32:17;;;;;;;3.30;1.60;;;8.50;90.10;;;;;;5081261;28;20201;-61
2022/01/15 11:35:00;;;;;;;4.90;1.80;;;8.50;90.10;;;;;;5085451;28;20232;-61
2022/01/15 11:37:40;;;;;;;8.67;2.23;;;8.40;89.90;;;;;;5070253;28;20318;-60
2022/01/15 11:40:46;;;;;;;3.20;1.80;;;8.30;89.70;;;;;;5082341;28;20220;-60
2022/01/15 11:43:41;;;;;;;3.10;1.80;;;8.20;89.80;;;;;;5078561;28;20199;-59
2022/01/15 11:46:24;;;;;;;5.80;1.50;;;8.10;90.10;;;;;;5060538;28;20235;-59
2022/01/15 11:48:52;;;;;;;1.27;1.10;;;8.00;90.10;;;;;;5082381;28;20314;-61
2022/01/15 11:51:26;;;;;;;2.43;1.40;;;8.00;90.30;;;;;;5082634;28;20287;-61
2022/01/15 11:53:58;;;;;;;4.90;1.73;;;7.90;90.40;;;;;;5090019;28;20198;-61
2022/01/15 11:56:27;;;;;;;3.70;1.80;;;7.90;90.40;;;;;;5085025;28;20228;-60
2022/01/15 11:58:57;;;;;;;4.50;1.83;;;7.80;90.70;;;;;;5087856;28;20553;-60
2022/01/15 12:01:42;;;;;;;4.47;1.87;;;7.90;90.70;;;;;;5085171;28;20201;-59
2022/01/15 12:04:26;;;;;;;3.60;1.80;;;7.80;90.50;;;;;;5081075;28;20195;-60
2022/01/15 12:07:22;;;;;;;7.00;1.50;;;7.80;90.30;;;;;;5080198;28;20196;-59
2022/01/15 12:09:51;;;;;;;5.00;1.30;;;7.70;90.40;;;;;;5084681;28;20543;-60
2022/01/15 12:12:45;;;;;;;2.50;1.40;;;7.70;90.30;;;;;;5078261;28;20211;-61
2022/01/15 12:15:17;;;;;;;2.60;1.30;;;7.70;90.40;;;;;;5086357;28;20227;-60
2022/01/15 12:17:46;;;;;;;2.17;1.37;;;7.70;90.40;;;;;;5080596;28;20186;-60
2022/01/15 12:20:35;;;;;;;5.20;2.00;;;7.70;90.50;;;;;;5082610;28;20188;-59
2022/01/15 12:23:04;;;;;;;3.20;1.50;;;7.70;90.30;;;;;;5081410;28;20561;-60
2022/01/15 12:25:35;;;;;;;4.30;1.50;;;7.70;90.20;;;;;;5082467;28;20572;-61
2022/01/15 12:28:04;;;;;;;1.70;1.27;;;7.70;90.20;;;;;;5076121;28;20192;-60
2022/01/15 12:30:32;;;;;;;2.67;1.20;;;7.70;90.40;;;;;;5091094;28;20193;-60
2022/01/15 12:33:01;;;;;;;1.73;1.00;;;7.70;90.40;;;;;;5087138;28;20209;-61
2022/01/15 12:35:31;;;;;;;2.20;1.10;;;7.60;90.40;;;;;;5088170;28;20235;-60
2022/01/15 12:38:02;;;;;;;7.53;2.33;;;7.70;90.50;;;;;;5078451;28;20564;-60
2022/01/15 12:40:35;;;;;;;3.50;1.70;;;7.70;90.40;;;;;;5089153;28;20682;-60
2022/01/15 12:43:04;;;;;;;9.07;2.17;;;7.70;90.30;;;;;;5076424;28;20200;-60
2022/01/15 12:45:33;;;;;;;4.20;1.97;;;7.70;90.20;;;;;;5084925;28;20199;-59
2022/01/15 12:48:00;;;;;;;3.03;1.73;;;7.60;90.20;;;;;;5087786;28;20192;-60
2022/01/15 12:50:29;;;;;;;2.20;1.60;;;7.60;90.30;;;;;;5073340;28;20680;-60
2022/01/15 12:53:01;;;;;;;2.13;1.47;;;7.60;90.40;;;;;;5083725;28;20671;-61
2022/01/15 12:55:32;;;;;;;1.73;1.13;;;7.60;90.50;;;;;;5091677;28;20517;-60
2022/01/15 12:58:01;;;;;;;1.00;0.90;;;7.60;90.60;;;;;;5092966;28;20656;-60
2022/01/15 13:00:31;;;;;;;1.37;0.87;;;7.60;90.70;;;;;;5087403;28;20219;-59
2022/01/15 13:03:00;;;;;;;2.53;1.20;;;7.60;90.70;;;;;;5091198;28;20258;-60
2022/01/15 13:05:30;;;;;;;3.67;1.77;;;7.70;90.60;;;;;;5069677;28;20211;-61
2022/01/15 13:08:01;;;;;;;1.47;1.30;;;7.70;90.10;;;;;;5086839;28;20228;-59
2022/01/15 13:10:33;;;;;;;3.57;1.60;;;7.60;90.10;;;;;;5077780;28;20205;-61
2022/01/15 13:13:03;;;;;;;1.27;1.00;;;7.70;90.10;;;;;;5080214;28;20197;-59
2022/01/15 13:15:31;;;;;;;0.70;0.70;;;7.70;90.20;;;;;;5086809;28;20197;-59
2022/01/15 13:17:59;;;;;;;4.87;1.40;;;7.70;90.30;;;;;;5075014;28;20196;-59
2022/01/15 13:20:32;;;;;;;3.10;1.27;;;7.70;90.20;;;;;;5074126;28;20224;-59